Time;durP1;ratioP1;P1;durP2;ratioP2;P2;SDS_P1;SDS_P2;PMS_P1;PMS_P2;Temp;Humidity;BMP_temperature;BMP_pressure;BME280_temperature;BME280_humidity;BME280_pressure;Samples;Min_cycle;Max_cycle;Signal;HPM_P1;HPM_P2
2021/03/21 01:25:24;;;;;;;6.63;3.45;;;14.60;60.10;;;;;;6188167;23;20091;-78
2021/03/21 01:29:10;;;;;;;;;;;;;;;;;;;;;
2021/03/21 01:32:49;;;;;;;;;;;;;;;;;;;;;
2021/03/21 01:35:51;;;;;;;;;;;;;;;;;;;;;
2021/03/21 01:38:51;;;;;;;7.55;3.05;;;14.50;60.30;;;;;;6188529;23;20067;-78
2021/03/21 01:41:38;;;;;;;7.85;3.10;;;14.50;60.50;;;;;;6163285;23;20005;-78
2021/03/21 01:44:44;;;;;;;;;;;;;;;;;;;;;
2021/03/21 01:48:04;;;;;;;;;;;;;;;;;;;;;
2021/03/21 01:51:21;;;;;;;6.20;3.08;;;14.50;60.50;;;;;;6189005;23;20017;-79
2021/03/21 01:59:00;;;;;;;;;;;;;;;;;;;;;
2021/03/21 02:02:16;;;;;;;;;;;;;;;;;;;;;
2021/03/21 02:05:35;;;;;;;6.35;2.97;;;14.50;60.50;;;;;;6032198;23;20023;-78
2021/03/21 02:09:00;;;;;;;5.40;2.60;;;14.40;60.60;;;;;;6048432;23;20432;-79
2021/03/21 02:15:34;;;;;;;4.97;2.53;;;14.40;60.60;;;;;;6188321;23;20008;-79
2021/03/21 02:18:49;;;;;;;10.27;3.10;;;14.50;60.60;;;;;;6163835;23;20008;-79
2021/03/21 02:21:41;;;;;;;5.53;2.92;;;14.50;60.50;;;;;;6163116;23;20012;-78
2021/03/21 02:24:58;;;;;;;5.88;2.97;;;14.40;60.50;;;;;;6165969;23;20005;-78
2021/03/21 02:28:06;;;;;;;7.50;2.05;;;14.40;60.40;;;;;;6164920;23;20005;-78
2021/03/21 02:30:48;;;;;;;8.98;2.47;;;14.40;60.40;;;;;;6163083;23;20016;-78
2021/03/21 02:33:51;;;;;;;6.88;2.20;;;14.40;60.40;;;;;;6138445;23;20013;-79
2021/03/21 02:37:06;;;;;;;3.83;1.60;;;14.40;60.50;;;;;;6146651;23;20088;-78
2021/03/21 02:39:53;;;;;;;8.18;2.53;;;14.40;60.40;;;;;;6117490;23;20021;-79
2021/03/21 02:42:40;;;;;;;5.15;1.95;;;14.40;60.40;;;;;;6138456;23;20260;-78
2021/03/21 02:45:26;;;;;;;5.72;2.25;;;14.40;60.40;;;;;;6163172;23;20036;-78
2021/03/21 02:48:25;;;;;;;8.40;2.47;;;14.40;60.50;;;;;;6163338;23;20009;-78
2021/03/21 02:51:04;;;;;;;5.80;2.08;;;14.40;60.40;;;;;;6162171;23;20085;-78
2021/03/21 02:53:42;;;;;;;8.95;2.30;;;14.40;60.40;;;;;;6162285;23;20028;-78
2021/03/21 02:56:17;;;;;;;4.60;1.60;;;14.40;60.40;;;;;;6138786;23;20012;-78
2021/03/21 02:58:57;;;;;;;6.85;1.70;;;14.40;60.40;;;;;;6162259;23;20016;-77
2021/03/21 03:01:38;;;;;;;6.75;2.03;;;14.40;60.20;;;;;;6137898;23;20029;-78
2021/03/21 03:04:10;;;;;;;7.55;2.45;;;14.40;60.30;;;;;;6162255;23;20020;-78
2021/03/21 03:06:46;;;;;;;6.47;2.15;;;14.40;60.30;;;;;;6162429;23;20081;-79
2021/03/21 03:09:25;;;;;;;6.38;1.70;;;14.40;60.30;;;;;;6172179;23;20016;-78
2021/03/21 03:11:56;;;;;;;8.55;2.03;;;14.40;60.40;;;;;;6161969;23;20294;-78
2021/03/21 03:14:29;;;;;;;8.82;2.10;;;14.30;60.30;;;;;;6162304;23;20009;-78
2021/03/21 03:17:09;;;;;;;7.32;1.92;;;14.30;60.40;;;;;;6162120;23;20005;-78
2021/03/21 03:19:57;;;;;;;5.72;2.03;;;14.30;60.30;;;;;;6145748;23;20021;-78
2021/03/21 03:22:44;;;;;;;9.20;2.20;;;14.30;60.20;;;;;;6186246;23;20095;-77
2021/03/21 03:25:31;;;;;;;7.38;1.60;;;14.30;60.30;;;;;;6186301;23;20040;-79
2021/03/21 03:28:11;;;;;;;7.43;2.15;;;14.30;60.40;;;;;;6186890;23;20090;-77
2021/03/21 03:31:08;;;;;;;8.77;2.53;;;14.30;60.40;;;;;;6162385;23;20012;-78
2021/03/21 03:33:37;;;;;;;10.65;2.00;;;14.30;60.50;;;;;;6197386;23;20067;-77
2021/03/21 03:36:08;;;;;;;11.25;2.97;;;14.30;60.30;;;;;;6187019;23;20013;-79
2021/03/21 03:38:40;;;;;;;9.63;2.58;;;14.30;60.40;;;;;;6187187;23;20009;-77
2021/03/21 03:41:27;;;;;;;9.50;2.53;;;14.30;60.30;;;;;;6186780;23;20444;-78
2021/03/21 03:44:03;;;;;;;10.30;2.55;;;14.30;60.20;;;;;;6186425;23;20001;-78
2021/03/21 03:47:16;;;;;;;8.73;2.40;;;14.30;60.20;;;;;;6197087;23;20016;-77
2021/03/21 03:50:01;;;;;;;8.65;2.15;;;14.30;60.20;;;;;;6163400;23;20079;-78
2021/03/21 03:52:54;;;;;;;7.88;2.17;;;14.30;60.30;;;;;;6196707;23;20028;-78
2021/03/21 03:55:34;;;;;;;8.37;2.43;;;14.20;60.10;;;;;;6162054;23;20298;-79
2021/03/21 03:58:21;;;;;;;8.15;1.83;;;14.30;59.90;;;;;;6161762;23;20043;-78
2021/03/21 04:00:59;;;;;;;8.63;1.70;;;14.30;59.90;;;;;;6186812;23;20005;-77
2021/03/21 04:03:54;;;;;;;7.68;1.95;;;14.20;60.00;;;;;;6186384;23;20001;-77
2021/03/21 04:06:58;;;;;;;9.57;2.38;;;14.20;60.00;;;;;;6187849;23;20421;-79
2021/03/21 04:09:30;;;;;;;10.68;2.42;;;14.20;60.00;;;;;;6188722;23;20020;-77
2021/03/21 04:12:08;;;;;;;9.93;1.85;;;14.20;60.10;;;;;;6186990;23;20078;-77
2021/03/21 04:14:49;;;;;;;9.70;2.08;;;14.20;60.00;;;;;;6162004;23;20330;-77
2021/03/21 04:17:40;;;;;;;8.63;2.03;;;14.20;60.00;;;;;;6186806;23;20044;-79
2021/03/21 04:20:10;;;;;;;7.72;2.08;;;14.20;59.90;;;;;;6175720;23;20009;-78
2021/03/21 04:22:42;;;;;;;5.38;1.55;;;14.20;60.00;;;;;;6187552;23;20016;-78
2021/03/21 04:25:16;;;;;;;6.18;1.30;;;14.20;60.00;;;;;;6161999;23;20005;-78
2021/03/21 04:27:51;;;;;;;8.48;1.88;;;14.20;60.40;;;;;;6161737;23;20406;-78
2021/03/21 04:30:39;;;;;;;9.63;2.40;;;14.20;59.90;;;;;;6161542;23;20009;-77
2021/03/21 04:33:09;;;;;;;7.55;1.70;;;14.20;59.80;;;;;;6171035;23;20038;-77
2021/03/21 04:35:45;;;;;;;7.90;1.77;;;14.10;59.60;;;;;;6137176;23;20017;-77
2021/03/21 04:38:16;;;;;;;8.00;1.58;;;14.20;59.70;;;;;;6136723;23;20298;-78
2021/03/21 04:40:44;;;;;;;6.13;1.40;;;14.10;59.70;;;;;;6161855;23;20009;-78
2021/03/21 04:43:24;;;;;;;8.77;1.40;;;14.10;59.50;;;;;;6137644;23;20009;-79
2021/03/21 04:45:54;;;;;;;9.35;2.55;;;14.10;59.60;;;;;;6161793;23;20017;-78
2021/03/21 04:48:24;;;;;;;9.38;2.00;;;14.10;59.50;;;;;;6161529;23;20020;-76
2021/03/21 04:51:00;;;;;;;9.63;2.10;;;14.10;59.50;;;;;;6162187;23;20425;-78
2021/03/21 04:53:52;;;;;;;11.05;2.88;;;14.10;59.20;;;;;;6172412;23;20004;-78
2021/03/21 04:56:43;;;;;;;9.43;2.10;;;14.10;59.00;;;;;;6164248;23;20008;-77
2021/03/21 04:59:35;;;;;;;11.95;2.28;;;14.10;58.80;;;;;;6163267;23;20447;-76
2021/03/21 05:02:13;;;;;;;9.32;1.90;;;14.10;59.00;;;;;;6163529;23;20013;-77
2021/03/21 05:04:57;;;;;;;9.45;2.00;;;14.10;59.30;;;;;;6163255;23;20015;-77
2021/03/21 05:07:41;;;;;;;6.22;1.40;;;14.10;59.20;;;;;;6163783;23;20020;-77
2021/03/21 05:10:21;;;;;;;9.27;1.80;;;14.10;59.10;;;;;;6163045;23;20013;-78
2021/03/21 05:12:59;;;;;;;9.98;2.05;;;14.10;59.20;;;;;;6163002;23;20413;-78
2021/03/21 05:15:53;;;;;;;8.90;2.25;;;14.10;59.10;;;;;;6163380;23;20005;-77
2021/03/21 05:18:25;;;;;;;8.18;2.22;;;14.10;59.10;;;;;;6163844;23;20132;-76
2021/03/21 05:21:17;;;;;;;13.05;2.00;;;14.10;59.10;;;;;;6189398;23;20009;-78
2021/03/21 05:24:22;;;;;;;14.70;2.33;;;14.10;58.60;;;;;;6187643;23;20005;-79
2021/03/21 05:27:48;;;;;;;9.98;2.50;;;14.00;58.40;;;;;;6068941;23;20338;-77
2021/03/21 05:30:29;;;;;;;8.60;1.63;;;14.00;58.80;;;;;;6074356;23;20018;-79
2021/03/21 05:33:10;;;;;;;14.25;2.67;;;14.10;58.90;;;;;;6162283;23;20120;-79
2021/03/21 05:35:40;;;;;;;8.73;2.15;;;14.20;59.30;;;;;;6197481;23;20032;-80
2021/03/21 05:38:59;;;;;;;8.70;1.77;;;14.30;59.00;;;;;;6197684;23;20020;-81
2021/03/21 05:42:04;;;;;;;9.70;2.30;;;14.60;58.80;;;;;;6104273;23;20407;-80
2021/03/21 05:44:55;;;;;;;11.38;1.85;;;14.70;58.60;;;;;;6127400;23;20021;-82
2021/03/21 05:47:58;;;;;;;7.78;1.88;;;14.90;58.40;;;;;;6188610;23;20083;-79
2021/03/21 05:51:08;;;;;;;10.27;1.90;;;15.10;58.40;;;;;;6161645;23;20298;-80
2021/03/21 05:54:15;;;;;;;12.18;1.95;;;15.40;58.40;;;;;;6197309;23;20009;-81
2021/03/21 05:57:28;;;;;;;11.85;1.77;;;15.60;58.20;;;;;;6163117;23;20016;-82
2021/03/21 06:00:44;;;;;;;15.90;2.33;;;15.60;58.70;;;;;;6187058;23;20024;-78
2021/03/21 06:03:23;;;;;;;7.65;2.03;;;15.80;58.80;;;;;;6198287;23;20422;-83
2021/03/21 06:06:06;;;;;;;12.05;2.53;;;16.00;58.50;;;;;;6188117;23;20005;-83
2021/03/21 06:09:05;;;;;;;13.98;2.30;;;16.10;58.80;;;;;;6162192;23;20357;-86
2021/03/21 06:12:06;;;;;;;16.33;2.72;;;16.20;59.10;;;;;;6158350;23;20020;-82
2021/03/21 06:19:27;;;;;;;12.75;2.03;;;16.40;58.70;;;;;;6132333;23;20346;-81
2021/03/21 06:22:43;;;;;;;12.82;2.60;;;16.50;58.70;;;;;;6187283;23;20027;-81
2021/03/21 06:25:54;;;;;;;11.88;2.88;;;16.60;58.40;;;;;;6107090;23;20097;-81
2021/03/21 06:29:11;;;;;;;8.43;2.40;;;16.80;58.70;;;;;;6102590;23;20018;-82
2021/03/21 06:31:57;;;;;;;9.70;3.20;;;16.90;58.70;;;;;;6186456;23;20020;-82
2021/03/21 06:34:29;;;;;;;9.60;2.70;;;17.00;58.50;;;;;;6188279;23;20091;-81
2021/03/21 06:37:00;;;;;;;9.20;3.22;;;17.00;58.20;;;;;;6162271;23;20354;-82
2021/03/21 06:40:07;;;;;;;12.02;2.33;;;17.20;58.20;;;;;;6162318;23;20017;-82
2021/03/21 06:43:12;;;;;;;13.00;2.72;;;17.20;58.10;;;;;;6160512;23;20104;-83
2021/03/21 07:03:16;;;;;;;15.73;2.60;;;17.60;57.60;;;;;;6247354;23;20018;-79
2021/03/21 07:17:28;;;;;;;11.80;3.03;;;18.00;57.40;;;;;;6062733;23;20048;-81
2021/03/21 07:20:16;;;;;;;18.65;3.22;;;18.00;57.10;;;;;;6106860;23;20009;-75
2021/03/21 07:22:41;;;;;;;12.15;2.70;;;18.10;57.10;;;;;;6166535;23;20009;-75
2021/03/21 07:25:37;;;;;;;15.55;3.28;;;18.10;56.90;;;;;;6155685;23;20025;-78
2021/03/21 07:28:08;;;;;;;21.65;4.38;;;18.10;57.10;;;;;;6165562;23;20020;-77
2021/03/21 07:31:16;;;;;;;20.55;4.45;;;18.00;57.00;;;;;;6211483;23;20018;-74
2021/03/21 07:33:54;;;;;;;19.98;4.78;;;18.00;56.80;;;;;;6257928;23;20004;-76
2021/03/21 07:36:26;;;;;;;21.35;4.07;;;18.00;55.90;;;;;;6258304;23;20015;-78
2021/03/21 07:39:33;;;;;;;21.02;3.40;;;17.90;54.90;;;;;;6258335;23;20012;-77
2021/03/21 07:42:37;;;;;;;16.33;4.78;;;17.80;54.50;;;;;;6166118;23;20016;-76
2021/03/21 07:45:19;;;;;;;16.48;4.00;;;17.70;54.50;;;;;;6097375;23;20010;-78
2021/03/21 07:48:19;;;;;;;18.17;4.20;;;17.60;54.90;;;;;;6217775;23;20011;-81
2021/03/21 07:50:53;;;;;;;14.88;3.83;;;17.60;55.30;;;;;;6221206;23;20024;-74
2021/03/21 07:53:28;;;;;;;17.25;3.90;;;17.60;55.90;;;;;;6257711;23;20019;-76
2021/03/21 07:56:07;;;;;;;22.60;4.68;;;17.50;55.30;;;;;;6249916;23;20086;-75
2021/03/21 07:58:48;;;;;;;17.25;4.85;;;17.50;56.00;;;;;;6258130;23;20066;-77
2021/03/21 08:01:17;;;;;;;20.55;4.20;;;17.40;56.30;;;;;;6257804;23;20012;-77
2021/03/21 08:04:07;;;;;;;28.40;4.70;;;17.40;56.60;;;;;;6258146;23;20402;-78
2021/03/21 08:06:44;;;;;;;21.80;5.00;;;17.40;57.50;;;;;;6257570;23;20008;-77
2021/03/21 08:09:36;;;;;;;25.35;5.28;;;17.30;57.50;;;;;;6231475;23;20028;-77
2021/03/21 08:12:21;;;;;;;27.83;4.72;;;17.20;57.40;;;;;;6257736;23;20015;-77
2021/03/21 08:15:08;;;;;;;23.75;4.22;;;17.20;57.70;;;;;;6247764;23;20004;-78
2021/03/21 08:17:48;;;;;;;21.15;4.80;;;17.20;57.90;;;;;;6247607;23;20008;-86
2021/03/21 08:20:24;;;;;;;38.33;5.82;;;17.10;57.30;;;;;;6257669;23;20070;-75
2021/03/21 08:23:03;;;;;;;26.80;4.78;;;17.10;58.00;;;;;;6257481;23;20015;-77
2021/03/21 08:25:37;;;;;;;28.65;5.13;;;17.00;58.10;;;;;;6230528;23;20082;-79
2021/03/21 08:32:12;;;;;;;24.83;4.70;;;17.00;58.50;;;;;;6249702;23;20016;-78
2021/03/21 08:34:54;;;;;;;31.63;6.15;;;16.90;58.40;;;;;;6191560;23;20293;-77
2021/03/21 08:41:47;;;;;;;33.85;5.55;;;16.90;58.60;;;;;;6127525;23;20097;-78
2021/03/21 08:45:14;;;;;;;33.25;6.30;;;16.90;58.50;;;;;;6226584;23;20008;-77
2021/03/21 08:48:17;;;;;;;25.05;5.47;;;16.80;58.40;;;;;;6138513;23;20044;-78
2021/03/21 08:51:28;;;;;;;;;;;;;;;;;;;;;
2021/03/21 08:58:57;;;;;;;62.63;8.23;;;16.70;58.80;;;;;;6105897;23;20361;-77
2021/03/21 09:02:04;;;;;;;50.53;8.60;;;16.70;58.80;;;;;;6249071;23;20012;-78
2021/03/21 09:04:39;;;;;;;46.55;7.93;;;16.60;59.20;;;;;;6259733;23;20070;-78
2021/03/21 09:07:20;;;;;;;52.67;8.48;;;16.60;58.80;;;;;;6259323;23;20012;-77
2021/03/21 09:09:46;;;;;;;35.00;6.88;;;16.50;59.10;;;;;;6260032;23;20024;-78
2021/03/21 09:12:30;;;;;;;41.40;7.35;;;16.50;59.60;;;;;;6259014;23;20412;-77
2021/03/21 09:15:21;;;;;;;41.35;8.43;;;16.50;59.70;;;;;;6259608;23;20102;-77
2021/03/21 09:18:18;;;;;;;31.80;7.20;;;16.40;59.40;;;;;;6260581;23;20008;-78
2021/03/21 09:20:52;;;;;;;31.70;6.32;;;16.50;59.70;;;;;;6259809;23;20015;-77
2021/03/21 09:23:59;;;;;;;38.28;5.85;;;16.40;59.80;;;;;;6259410;23;20019;-77
2021/03/21 09:26:31;;;;;;;33.15;6.22;;;16.40;59.70;;;;;;6097960;23;20014;-77
2021/03/21 09:29:20;;;;;;;34.85;6.88;;;16.30;59.70;;;;;;6226364;23;20087;-77
2021/03/21 09:31:52;;;;;;;29.52;6.07;;;16.40;59.70;;;;;;6258971;23;20078;-78
2021/03/21 09:34:26;;;;;;;27.57;6.23;;;16.30;59.70;;;;;;6259130;23;20008;-78
2021/03/21 09:37:05;;;;;;;45.15;6.47;;;16.30;59.20;;;;;;6233188;23;20073;-74
2021/03/21 09:39:34;;;;;;;28.92;6.00;;;16.20;56.10;;;;;;6231841;23;20012;-74
2021/03/21 09:42:04;;;;;;;32.35;6.43;;;16.00;55.60;;;;;;6259016;23;20432;-74
2021/03/21 09:44:43;;;;;;;26.75;6.50;;;15.90;56.50;;;;;;6259569;23;20405;-74
2021/03/21 09:47:36;;;;;;;27.38;6.65;;;15.90;57.00;;;;;;6260017;23;20405;-73
2021/03/21 09:50:21;;;;;;;27.73;7.07;;;15.90;57.00;;;;;;6259876;23;20330;-74
2021/03/21 09:53:29;;;;;;;23.98;6.45;;;15.90;57.30;;;;;;6259036;23;20083;-75
2021/03/21 09:56:05;;;;;;;31.63;7.00;;;15.80;57.30;;;;;;6259047;23;20082;-73
2021/03/21 09:58:57;;;;;;;28.25;7.05;;;15.80;57.60;;;;;;6259465;23;20008;-74
2021/03/21 10:01:46;;;;;;;26.30;5.80;;;15.80;57.70;;;;;;6259221;23;20027;-76
2021/03/21 10:04:29;;;;;;;24.65;5.63;;;15.80;57.60;;;;;;6259755;23;20008;-74
2021/03/21 10:07:07;;;;;;;20.95;4.72;;;15.80;57.70;;;;;;6258818;23;20023;-75
2021/03/21 10:09:34;;;;;;;25.90;6.13;;;15.80;58.00;;;;;;6259360;23;20008;-74
2021/03/21 10:12:09;;;;;;;25.35;5.45;;;15.80;58.10;;;;;;6259395;23;20429;-74
2021/03/21 10:14:34;;;;;;;26.23;5.55;;;15.80;58.50;;;;;;6259521;23;20036;-74
2021/03/21 10:17:18;;;;;;;30.67;5.45;;;15.80;58.30;;;;;;6258991;23;20015;-75
2021/03/21 10:19:47;;;;;;;18.65;5.00;;;15.80;58.40;;;;;;6259515;23;20012;-74
2021/03/21 10:22:28;;;;;;;20.25;4.85;;;15.70;58.40;;;;;;6258959;23;20008;-74
2021/03/21 10:25:12;;;;;;;27.45;5.78;;;15.70;58.30;;;;;;6259717;23;20016;-73
2021/03/21 10:27:46;;;;;;;20.73;4.35;;;15.70;58.40;;;;;;6259285;23;20011;-73
2021/03/21 10:30:25;;;;;;;20.08;4.90;;;15.70;58.30;;;;;;6259233;23;20083;-73
2021/03/21 10:33:00;;;;;;;17.10;4.88;;;15.70;58.60;;;;;;6259090;23;20011;-73
2021/03/21 10:35:26;;;;;;;21.85;5.57;;;15.70;58.40;;;;;;6259642;23;20019;-75
2021/03/21 10:38:08;;;;;;;15.45;4.80;;;15.70;58.70;;;;;;6259162;23;20008;-74
2021/03/21 10:40:36;;;;;;;17.75;4.78;;;15.70;58.60;;;;;;6259183;23;20075;-73
2021/03/21 10:43:17;;;;;;;19.98;4.25;;;15.70;58.60;;;;;;6258920;23;20012;-72
2021/03/21 10:45:43;;;;;;;23.73;5.05;;;15.70;58.70;;;;;;6259090;23;20378;-74
2021/03/21 10:48:14;;;;;;;14.85;4.32;;;15.60;58.70;;;;;;6259398;23;20015;-72
2021/03/21 10:50:46;;;;;;;17.92;4.50;;;15.60;58.80;;;;;;6258346;23;20043;-76
2021/03/21 10:53:25;;;;;;;18.45;4.88;;;15.60;58.70;;;;;;6258737;23;20352;-74
2021/03/21 10:56:20;;;;;;;19.98;5.40;;;15.60;58.60;;;;;;6259268;23;20075;-73
2021/03/21 10:58:46;;;;;;;17.55;4.65;;;15.60;58.90;;;;;;6257692;23;20421;-72
2021/03/21 11:01:22;;;;;;;19.35;4.30;;;15.60;58.90;;;;;;6258716;23;20012;-75
2021/03/21 11:03:55;;;;;;;15.93;4.60;;;15.60;58.90;;;;;;6258862;23;20012;-73
2021/03/21 11:06:22;;;;;;;11.90;3.72;;;15.60;58.90;;;;;;6258976;23;20139;-74
2021/03/21 11:08:49;;;;;;;15.65;4.30;;;15.60;58.90;;;;;;6258630;23;20051;-74
2021/03/21 11:11:33;;;;;;;19.83;5.07;;;15.60;59.20;;;;;;6258890;23;20487;-73
2021/03/21 11:14:18;;;;;;;;;;;15.50;59.00;;;;;;6259530;23;20012;-74
2021/03/21 11:17:01;;;;;;;19.50;4.32;;;15.50;59.00;;;;;;6258502;23;20224;-73
2021/03/21 11:19:35;;;;;;;16.20;4.55;;;15.50;59.40;;;;;;6258547;23;20028;-74
2021/03/21 11:22:22;;;;;;;15.57;4.47;;;15.50;59.40;;;;;;6258863;23;20012;-74
2021/03/21 11:24:48;;;;;;;17.02;4.72;;;15.50;59.60;;;;;;6259021;23;20015;-76
2021/03/21 11:27:28;;;;;;;16.98;4.55;;;15.50;59.60;;;;;;6258350;23;20300;-76
2021/03/21 11:30:05;;;;;;;23.13;4.30;;;15.50;59.70;;;;;;6259123;23;20295;-74
2021/03/21 11:32:32;;;;;;;16.23;4.63;;;15.50;59.90;;;;;;6259441;23;20074;-73
2021/03/21 11:35:06;;;;;;;16.88;4.43;;;15.50;59.70;;;;;;6258825;23;20012;-73
2021/03/21 11:37:39;;;;;;;15.23;4.07;;;15.50;59.60;;;;;;6257984;23;20301;-75
2021/03/21 11:40:17;;;;;;;18.23;4.80;;;15.50;59.70;;;;;;6258857;23;20012;-74
2021/03/21 11:42:46;;;;;;;12.63;3.80;;;15.50;60.00;;;;;;6258638;23;20421;-74
2021/03/21 11:45:36;;;;;;;15.57;4.80;;;15.40;60.10;;;;;;6258560;23;20008;-75
2021/03/21 11:48:08;;;;;;;14.80;4.07;;;15.50;59.80;;;;;;6258513;23;20035;-73
2021/03/21 11:50:38;;;;;;;14.20;4.45;;;15.40;59.80;;;;;;6232828;23;20026;-74
2021/03/21 11:53:11;;;;;;;15.02;4.00;;;15.40;59.70;;;;;;6247984;23;20016;-74
2021/03/21 11:55:41;;;;;;;17.60;4.20;;;15.40;59.70;;;;;;6258253;23;20012;-74
2021/03/21 11:58:23;;;;;;;10.50;3.58;;;15.40;59.90;;;;;;6257829;23;20436;-74
2021/03/21 12:01:04;;;;;;;15.32;4.28;;;15.40;59.80;;;;;;6248581;23;20031;-73
2021/03/21 12:03:43;;;;;;;11.90;3.63;;;15.40;60.00;;;;;;6258291;23;20037;-72
2021/03/21 12:06:31;;;;;;;15.05;4.20;;;15.40;60.10;;;;;;6258101;23;20402;-75
2021/03/21 12:08:59;;;;;;;15.15;4.40;;;15.40;60.00;;;;;;6248595;23;20008;-74
2021/03/21 12:11:24;;;;;;;13.02;3.88;;;15.40;60.20;;;;;;6258170;23;20024;-72
2021/03/21 12:13:54;;;;;;;12.57;4.25;;;15.30;60.00;;;;;;6259160;23;20019;-73
2021/03/21 12:16:35;;;;;;;14.75;4.40;;;15.40;59.90;;;;;;6259100;23;20047;-75
2021/03/21 12:19:03;;;;;;;14.15;4.18;;;15.30;59.90;;;;;;6258036;23;20421;-75
2021/03/21 12:21:29;;;;;;;12.38;4.50;;;15.30;59.80;;;;;;6257749;23;20011;-75
2021/03/21 12:23:59;;;;;;;12.10;4.25;;;15.30;59.90;;;;;;6258566;23;20035;-73
2021/03/21 12:26:31;;;;;;;11.35;4.10;;;15.30;60.20;;;;;;6258314;23;20027;-74
2021/03/21 12:29:01;;;;;;;17.80;4.90;;;15.30;60.00;;;;;;6258013;23;20032;-73
2021/03/21 12:31:37;;;;;;;14.57;4.32;;;15.30;60.20;;;;;;6258401;23;20008;-74
2021/03/21 12:34:35;;;;;;;11.23;4.55;;;15.30;59.90;;;;;;6258684;23;20012;-73
2021/03/21 12:37:08;;;;;;;15.45;4.78;;;15.30;60.00;;;;;;6258148;23;20005;-73
2021/03/21 12:39:36;;;;;;;17.75;5.60;;;15.30;60.40;;;;;;6258798;23;20038;-73
2021/03/21 12:42:02;;;;;;;18.52;6.40;;;15.30;60.00;;;;;;6257827;23;20013;-73
2021/03/21 12:44:34;;;;;;;13.70;5.60;;;15.30;59.90;;;;;;6258261;23;20012;-74
2021/03/21 12:47:03;;;;;;;18.70;6.90;;;15.30;60.00;;;;;;6258787;23;20087;-75
2021/03/21 12:49:32;;;;;;;15.98;6.18;;;15.30;60.10;;;;;;6258258;23;20309;-74
2021/03/21 12:52:11;;;;;;;17.30;6.88;;;15.30;60.30;;;;;;6258267;23;20012;-75
2021/03/21 12:54:40;;;;;;;15.07;5.68;;;15.30;60.10;;;;;;6257678;23;20030;-73
2021/03/21 12:57:13;;;;;;;14.45;6.07;;;15.20;60.20;;;;;;6258736;23;20069;-73
2021/03/21 12:59:42;;;;;;;17.90;6.82;;;15.30;60.30;;;;;;6254394;23;20015;-74
2021/03/21 13:02:17;;;;;;;19.15;7.55;;;15.30;60.50;;;;;;6258430;23;20028;-73
2021/03/21 13:04:43;;;;;;;18.83;6.88;;;15.20;60.20;;;;;;6257834;23;20023;-73
2021/03/21 13:07:09;;;;;;;21.48;7.72;;;15.20;60.00;;;;;;6258643;23;20016;-73
2021/03/21 13:09:34;;;;;;;18.02;6.82;;;15.30;60.00;;;;;;6258636;23;20099;-73
2021/03/21 13:12:00;;;;;;;16.42;7.22;;;15.20;60.00;;;;;;6257554;23;20008;-73
2021/03/21 13:14:26;;;;;;;17.30;7.65;;;15.20;60.00;;;;;;6259054;23;20038;-76
2021/03/21 13:16:52;;;;;;;18.35;7.53;;;15.20;59.80;;;;;;6260030;23;20012;-74
2021/03/21 13:19:17;;;;;;;16.58;6.72;;;15.20;60.00;;;;;;6260592;23;20061;-74
2021/03/21 13:21:43;;;;;;;16.25;6.75;;;15.20;60.30;;;;;;6259740;23;20312;-73
2021/03/21 13:24:09;;;;;;;20.38;7.88;;;15.20;60.10;;;;;;6259855;23;20047;-74
2021/03/21 13:26:35;;;;;;;16.40;7.03;;;15.20;60.10;;;;;;6259711;23;20008;-73
2021/03/21 13:29:00;;;;;;;21.08;7.53;;;15.20;60.10;;;;;;6259738;23;20059;-74
2021/03/21 13:31:26;;;;;;;14.13;6.03;;;15.20;59.90;;;;;;6259626;23;20016;-74
2021/03/21 13:33:52;;;;;;;13.80;6.13;;;15.20;60.00;;;;;;6260084;23;20086;-75
2021/03/21 13:36:19;;;;;;;15.02;6.50;;;15.20;60.00;;;;;;6260365;23;20020;-74
2021/03/21 13:38:46;;;;;;;14.40;5.90;;;15.30;59.50;;;;;;6260235;23;20470;-74
2021/03/21 13:41:12;;;;;;;12.75;6.15;;;15.30;59.10;;;;;;6259266;23;20085;-74
2021/03/21 13:43:37;;;;;;;14.57;6.45;;;15.20;59.00;;;;;;6259506;23;20012;-73
2021/03/21 13:46:04;;;;;;;15.80;6.78;;;15.20;58.90;;;;;;6259502;23;20413;-74
2021/03/21 13:48:30;;;;;;;16.20;6.03;;;15.30;58.90;;;;;;6259636;23;20040;-73
2021/03/21 13:50:57;;;;;;;13.60;6.35;;;15.20;58.70;;;;;;6260238;23;20016;-76
2021/03/21 13:53:28;;;;;;;14.38;5.80;;;15.20;59.00;;;;;;6259433;23;20008;-74
2021/03/21 13:55:56;;;;;;;14.32;6.30;;;15.20;59.20;;;;;;6259178;23;20016;-71
2021/03/21 13:58:22;;;;;;;14.82;5.75;;;15.20;59.10;;;;;;6259554;23;20012;-74
2021/03/21 14:00:48;;;;;;;14.30;5.78;;;15.30;59.30;;;;;;6251050;23;20093;-73
2021/03/21 14:03:13;;;;;;;14.70;5.70;;;15.20;59.50;;;;;;6258765;23;20329;-73
2021/03/21 14:05:40;;;;;;;16.08;5.75;;;15.20;60.40;;;;;;6259106;23;20063;-72
2021/03/21 14:08:08;;;;;;;15.75;5.00;;;15.20;59.70;;;;;;6259181;23;20012;-73
2021/03/21 14:10:36;;;;;;;13.15;5.65;;;15.20;59.80;;;;;;6249639;23;20012;-74
2021/03/21 14:13:03;;;;;;;13.45;5.65;;;15.20;59.90;;;;;;6259449;23;20012;-74
2021/03/21 14:15:36;;;;;;;15.52;5.65;;;15.20;60.00;;;;;;6259073;23;20301;-75
2021/03/21 14:18:03;;;;;;;17.20;5.15;;;15.20;60.10;;;;;;6259240;23;20012;-73
2021/03/21 14:20:35;;;;;;;15.68;4.93;;;15.20;59.90;;;;;;6260077;23;20449;-77
2021/03/21 14:23:04;;;;;;;16.63;6.00;;;15.20;59.80;;;;;;6258719;23;20405;-74
2021/03/21 14:25:30;;;;;;;12.20;5.28;;;15.20;60.00;;;;;;6258906;23;20353;-73
2021/03/21 14:27:56;;;;;;;13.63;5.45;;;15.20;59.70;;;;;;6259147;23;20012;-73
2021/03/21 14:30:24;;;;;;;14.50;5.65;;;15.20;59.80;;;;;;6259057;23;20019;-73
2021/03/21 14:32:51;;;;;;;15.38;5.70;;;15.10;60.10;;;;;;6258377;23;20016;-74
2021/03/21 14:35:18;;;;;;;13.82;4.95;;;15.20;60.00;;;;;;6259512;23;20016;-72
2021/03/21 14:37:44;;;;;;;12.52;4.90;;;15.10;60.40;;;;;;6259199;23;20012;-74
2021/03/21 14:40:10;;;;;;;14.73;5.38;;;15.20;59.60;;;;;;6258830;23;20008;-75
2021/03/21 14:42:37;;;;;;;14.32;4.78;;;15.10;59.50;;;;;;6258873;23;20039;-75
2021/03/21 14:45:06;;;;;;;14.30;5.55;;;15.20;59.60;;;;;;6259086;23;20083;-73
2021/03/21 14:47:31;;;;;;;15.45;5.05;;;15.20;60.00;;;;;;6259031;23;20023;-73
2021/03/21 14:49:57;;;;;;;14.45;5.07;;;15.10;59.60;;;;;;6259544;23;20344;-73
2021/03/21 14:52:24;;;;;;;11.25;4.53;;;15.20;59.70;;;;;;6259447;23;20008;-74
2021/03/21 14:54:49;;;;;;;11.63;4.93;;;15.20;59.90;;;;;;6258567;23;20019;-76
2021/03/21 14:57:15;;;;;;;12.27;4.70;;;15.10;59.70;;;;;;6258776;23;20012;-74
2021/03/21 14:59:41;;;;;;;13.30;4.50;;;15.10;59.50;;;;;;6255878;23;20070;-74
2021/03/21 15:02:07;;;;;;;14.20;4.65;;;15.10;59.80;;;;;;6258822;23;20012;-73
2021/03/21 15:04:33;;;;;;;14.93;4.30;;;15.10;59.30;;;;;;6258743;23;20020;-74
2021/03/21 15:07:00;;;;;;;11.82;4.40;;;15.10;59.10;;;;;;6258282;23;20068;-73
2021/03/21 15:09:25;;;;;;;11.73;4.88;;;15.20;58.70;;;;;;6258504;23;20340;-74
2021/03/21 15:11:51;;;;;;;12.63;4.50;;;15.20;58.50;;;;;;6258654;23;20011;-74
2021/03/21 15:14:17;;;;;;;11.18;4.82;;;15.20;58.60;;;;;;6258237;23;20369;-75
2021/03/21 15:16:43;;;;;;;13.23;4.70;;;15.10;58.60;;;;;;6259343;23;20012;-73
2021/03/21 15:19:09;;;;;;;12.73;4.65;;;15.20;58.50;;;;;;6258667;23;20008;-75
2021/03/21 15:21:34;;;;;;;13.50;4.38;;;15.20;59.30;;;;;;6258745;23;20279;-74
2021/03/21 15:24:00;;;;;;;13.32;4.55;;;15.10;58.60;;;;;;6258633;23;20012;-73
2021/03/21 15:26:26;;;;;;;11.45;4.20;;;15.10;58.60;;;;;;6259085;23;20008;-73
2021/03/21 15:28:53;;;;;;;13.48;4.43;;;15.10;58.70;;;;;;6258691;23;20385;-73
2021/03/21 15:31:29;;;;;;;12.27;4.03;;;15.10;58.70;;;;;;6258374;23;20016;-74
2021/03/21 15:33:55;;;;;;;12.82;3.95;;;15.10;58.50;;;;;;6258662;23;20409;-75
2021/03/21 15:36:22;;;;;;;12.75;4.53;;;15.10;58.30;;;;;;6258546;23;20011;-74
2021/03/21 15:38:52;;;;;;;12.10;3.60;;;15.10;58.10;;;;;;6249597;23;20034;-74
2021/03/21 15:41:20;;;;;;;14.48;4.43;;;15.20;58.10;;;;;;6258576;23;20008;-74
2021/03/21 15:43:48;;;;;;;11.02;3.67;;;15.10;58.10;;;;;;6257945;23;20015;-73
2021/03/21 15:46:14;;;;;;;15.00;3.97;;;15.20;58.00;;;;;;6247807;23;20263;-73
2021/03/21 15:48:41;;;;;;;14.65;4.22;;;15.20;58.10;;;;;;6258515;23;20083;-74
2021/03/21 15:51:07;;;;;;;13.18;4.32;;;15.20;58.40;;;;;;6259149;23;20016;-73
2021/03/21 15:53:33;;;;;;;11.57;3.70;;;15.10;58.50;;;;;;6257932;23;20418;-73
2021/03/21 15:55:59;;;;;;;12.43;4.25;;;15.10;58.50;;;;;;6258407;23;20012;-74
2021/03/21 15:58:25;;;;;;;13.27;4.38;;;15.20;58.50;;;;;;6258971;23;20020;-72
2021/03/21 16:00:54;;;;;;;9.48;3.55;;;15.10;58.40;;;;;;6250121;23;20405;-73
2021/03/21 16:03:21;;;;;;;12.15;4.57;;;15.10;58.70;;;;;;6258232;23;20095;-73
2021/03/21 16:05:47;;;;;;;12.10;3.92;;;15.20;58.90;;;;;;6258352;23;20012;-73
2021/03/21 16:08:14;;;;;;;11.77;4.13;;;15.10;58.80;;;;;;6258552;23;20047;-73
2021/03/21 16:10:40;;;;;;;13.45;4.20;;;15.10;58.70;;;;;;6258721;23;20016;-75
2021/03/21 16:13:09;;;;;;;12.73;4.18;;;15.10;58.70;;;;;;6258459;23;20020;-74